Terminal Aerodrome Forecast
Issued by NWS

Home | Current Version | Previous Version | Graphics & Text | Print | Product List | Glossary On
Versions: 1 2 3 4 5 6 7 8 9 10 11 12 13 14
000
FTUS43 KOAX 201721
TAFCDR
TAF
KCDR 201721Z 2018/2118 04007KT P6SM VCSH OVC004
     FM202300 04007KT 1SM -SN OVC005
     FM210300 03007KT 1/2SM SN OVC003=

USA.gov is the U.S. government's official web portal to all federal, state and local government web resources and services.